Time;durP1;ratioP1;P1;durP2;ratioP2;P2;SDS_P1;SDS_P2;PMS_P1;PMS_P2;Temp;Humidity;BMP_temperature;BMP_pressure;BME280_temperature;BME280_humidity;BME280_pressure;Samples;Min_cycle;Max_cycle;Signal;HPM_P1;HPM_P2
2021/10/22 00:00:04;;;;;;;11.65;7.28;;;10.10;88.50;;;;;;5028528;28;20553;-76
2021/10/22 00:02:29;;;;;;;9.52;7.10;;;10.10;88.40;;;;;;5027166;28;20216;-76
2021/10/22 00:04:55;;;;;;;8.80;6.78;;;10.10;88.60;;;;;;5025248;28;20190;-75
2021/10/22 00:07:21;;;;;;;10.63;6.60;;;10.10;88.10;;;;;;5024783;28;20185;-76
2021/10/22 00:09:48;;;;;;;8.13;6.40;;;10.10;87.80;;;;;;5023352;28;20184;-76
2021/10/22 00:12:13;;;;;;;9.40;5.78;;;10.10;88.60;;;;;;5029087;28;20184;-76
2021/10/22 00:14:39;;;;;;;10.20;6.60;;;10.00;88.50;;;;;;5027492;28;20567;-76
2021/10/22 00:17:05;;;;;;;7.38;6.00;;;10.00;88.80;;;;;;5025799;28;20242;-76
2021/10/22 00:19:32;;;;;;;8.15;6.20;;;10.00;88.80;;;;;;5023589;28;20184;-74
2021/10/22 00:21:59;;;;;;;7.55;5.22;;;10.00;89.20;;;;;;5022943;28;20585;-75
2021/10/22 00:24:25;;;;;;;5.75;4.85;;;10.00;88.90;;;;;;5026402;28;20191;-75
2021/10/22 00:26:50;;;;;;;8.68;4.80;;;10.00;88.70;;;;;;5027197;28;20181;-75
2021/10/22 00:29:16;;;;;;;9.63;5.55;;;10.00;88.70;;;;;;5022527;28;20291;-75
2021/10/22 00:31:42;;;;;;;5.53;4.53;;;10.00;88.50;;;;;;5026395;28;20180;-75
2021/10/22 00:34:07;;;;;;;6.55;5.32;;;10.00;88.50;;;;;;5024394;28;20278;-75
2021/10/22 00:36:35;;;;;;;5.18;4.70;;;9.90;88.70;;;;;;5022843;28;20182;-75
2021/10/22 00:39:00;;;;;;;6.22;4.75;;;9.90;88.70;;;;;;5025375;28;20644;-75
2021/10/22 00:41:28;;;;;;;4.40;3.92;;;9.90;88.50;;;;;;5021492;28;20307;-75
2021/10/22 00:43:53;;;;;;;4.47;4.05;;;9.90;88.60;;;;;;5023060;28;20189;-76
2021/10/22 00:46:19;;;;;;;4.85;4.45;;;9.80;88.60;;;;;;5026050;28;20242;-76
2021/10/22 00:48:44;;;;;;;4.22;3.70;;;9.80;88.80;;;;;;5020588;28;20185;-76
2021/10/22 00:51:14;;;;;;;5.25;4.75;;;9.80;88.80;;;;;;5026857;28;20646;-76
2021/10/22 00:53:41;;;;;;;4.83;4.23;;;9.80;88.90;;;;;;5023916;28;20195;-76
2021/10/22 00:56:09;;;;;;;4.83;4.03;;;9.80;89.00;;;;;;5025453;28;20215;-76
2021/10/22 00:58:36;;;;;;;4.78;3.97;;;9.80;88.60;;;;;;5024859;28;20168;-75
2021/10/22 01:01:02;;;;;;;5.13;4.03;;;9.80;88.70;;;;;;5024160;28;20191;-76
2021/10/22 01:03:27;;;;;;;4.68;3.80;;;9.80;88.50;;;;;;5021181;28;20180;-75
2021/10/22 01:05:53;;;;;;;4.60;4.20;;;9.80;88.80;;;;;;5028302;28;20557;-76
2021/10/22 01:08:19;;;;;;;7.83;5.43;;;9.80;88.70;;;;;;5024376;28;20187;-76
2021/10/22 01:10:45;;;;;;;4.70;4.20;;;9.70;89.00;;;;;;5026049;28;20177;-76
2021/10/22 01:13:11;;;;;;;5.63;4.60;;;9.70;89.10;;;;;;5026131;28;20199;-76
2021/10/22 01:15:37;;;;;;;5.30;4.50;;;9.70;89.20;;;;;;5022815;28;20243;-75
2021/10/22 01:18:03;;;;;;;5.13;4.63;;;9.60;89.40;;;;;;5022401;28;20194;-76
2021/10/22 01:20:29;;;;;;;5.47;4.57;;;9.60;89.10;;;;;;5024909;28;20725;-76
2021/10/22 01:22:55;;;;;;;4.75;4.30;;;9.60;89.10;;;;;;5027417;28;20659;-76
2021/10/22 01:25:24;;;;;;;4.60;4.13;;;9.60;89.00;;;;;;5025041;28;20184;-75
2021/10/22 01:27:51;;;;;;;4.77;4.23;;;9.60;89.00;;;;;;5025378;28;20246;-76
2021/10/22 01:30:18;;;;;;;4.57;4.17;;;9.60;89.20;;;;;;5022482;28;20196;-76
2021/10/22 01:32:45;;;;;;;5.20;4.13;;;9.60;89.00;;;;;;5021989;28;20184;-76
2021/10/22 01:35:11;;;;;;;4.30;3.92;;;9.50;89.20;;;;;;5023229;28;20199;-76
2021/10/22 01:37:38;;;;;;;5.77;4.40;;;9.50;89.40;;;;;;5021835;28;20204;-75
2021/10/22 01:40:05;;;;;;;6.17;3.50;;;9.50;89.30;;;;;;5022922;28;20669;-75
2021/10/22 01:42:31;;;;;;;5.80;4.47;;;9.50;89.30;;;;;;5025576;28;20247;-76
2021/10/22 01:44:57;;;;;;;5.32;3.78;;;9.40;89.50;;;;;;5027100;28;20297;-76
2021/10/22 01:47:23;;;;;;;6.17;4.23;;;9.40;89.70;;;;;;5023303;28;20679;-76
2021/10/22 01:49:53;;;;;;;5.13;4.65;;;9.40;90.00;;;;;;5025185;28;20176;-76
2021/10/22 01:52:19;;;;;;;6.80;4.53;;;9.30;89.60;;;;;;5019454;28;20215;-76
2021/10/22 01:54:46;;;;;;;4.93;4.38;;;9.30;89.60;;;;;;5023376;28;20250;-76
2021/10/22 01:57:13;;;;;;;7.55;4.13;;;9.30;90.10;;;;;;5019826;28;20189;-75
2021/10/22 01:59:39;;;;;;;9.27;5.00;;;9.30;90.20;;;;;;5027138;28;20180;-75
2021/10/22 02:02:05;;;;;;;4.90;4.40;;;9.20;90.20;;;;;;5019623;28;20224;-75
2021/10/22 02:04:31;;;;;;;4.23;3.90;;;9.20;90.50;;;;;;5027222;28;20203;-76
2021/10/22 02:06:58;;;;;;;4.87;4.20;;;9.10;90.70;;;;;;5019153;28;20975;-75
2021/10/22 02:09:24;;;;;;;8.30;4.47;;;9.10;91.10;;;;;;5024668;28;20637;-75
2021/10/22 02:11:50;;;;;;;4.37;3.97;;;9.10;90.80;;;;;;5023521;28;20189;-76
2021/10/22 02:14:15;;;;;;;5.73;4.43;;;9.10;90.90;;;;;;5024602;28;20184;-75
2021/10/22 02:16:43;;;;;;;8.37;4.43;;;9.10;90.70;;;;;;5021081;28;20265;-75
2021/10/22 02:19:09;;;;;;;5.70;3.93;;;9.10;90.50;;;;;;5025591;28;20267;-75
2021/10/22 02:21:35;;;;;;;5.10;3.60;;;9.00;91.00;;;;;;5025537;28;20208;-75
2021/10/22 02:24:00;;;;;;;5.60;3.73;;;9.00;91.20;;;;;;5025487;28;20188;-75
2021/10/22 02:26:26;;;;;;;4.40;4.00;;;8.90;91.30;;;;;;5021568;28;20185;-76
2021/10/22 02:28:52;;;;;;;4.00;3.60;;;8.90;91.40;;;;;;5024509;28;20645;-74
2021/10/22 02:31:19;;;;;;;5.00;3.80;;;8.80;91.60;;;;;;5025707;28;20295;-75
2021/10/22 02:33:45;;;;;;;3.50;3.17;;;8.80;91.50;;;;;;5023963;28;20188;-74
2021/10/22 02:36:11;;;;;;;4.07;3.73;;;8.80;91.30;;;;;;5025756;28;20196;-75
2021/10/22 02:38:37;;;;;;;3.93;3.60;;;8.80;91.30;;;;;;5025563;28;20184;-75
2021/10/22 02:41:03;;;;;;;4.30;3.83;;;8.80;91.10;;;;;;5026841;28;20631;-75
2021/10/22 02:43:28;;;;;;;5.00;3.43;;;8.80;91.00;;;;;;5029170;28;20184;-75
2021/10/22 02:45:54;;;;;;;6.90;3.90;;;8.80;91.30;;;;;;5028280;28;20565;-75
2021/10/22 02:48:20;;;;;;;4.33;3.40;;;8.80;91.30;;;;;;5029853;28;20346;-74
2021/10/22 02:50:46;;;;;;;4.20;3.77;;;8.80;91.10;;;;;;5028372;28;20245;-75
2021/10/22 02:53:11;;;;;;;3.90;3.33;;;8.70;91.40;;;;;;5027973;28;20188;-75
2021/10/22 02:55:37;;;;;;;4.77;3.87;;;8.80;91.10;;;;;;5026123;28;20206;-75
2021/10/22 02:58:03;;;;;;;4.43;3.83;;;8.80;91.10;;;;;;5026345;28;20193;-75
2021/10/22 03:00:28;;;;;;;4.27;3.90;;;8.70;91.30;;;;;;5030268;28;20664;-75
2021/10/22 03:02:54;;;;;;;3.63;3.33;;;8.70;91.30;;;;;;5022815;28;20980;-75
2021/10/22 03:05:20;;;;;;;3.67;3.37;;;8.70;91.30;;;;;;5018078;28;20177;-75
2021/10/22 03:07:46;;;;;;;5.07;3.77;;;8.70;91.50;;;;;;5027883;28;20192;-75
2021/10/22 03:10:11;;;;;;;5.53;3.80;;;8.60;91.30;;;;;;5020673;28;20200;-75
2021/10/22 03:12:37;;;;;;;3.87;3.57;;;8.60;91.80;;;;;;5028600;28;20191;-75
2021/10/22 03:15:05;;;;;;;3.90;3.60;;;8.60;91.80;;;;;;5028231;28;20185;-75
2021/10/22 03:17:31;;;;;;;4.23;3.70;;;8.60;91.70;;;;;;5020465;28;20604;-74
2021/10/22 03:19:56;;;;;;;7.93;3.37;;;8.50;91.50;;;;;;5023476;28;20188;-74
2021/10/22 03:22:22;;;;;;;4.03;3.63;;;8.50;91.90;;;;;;5026117;28;20243;-75
2021/10/22 03:24:48;;;;;;;3.47;3.27;;;8.50;92.10;;;;;;5029500;28;20226;-76
2021/10/22 03:27:15;;;;;;;5.77;4.10;;;8.50;92.20;;;;;;5026290;28;20183;-75
2021/10/22 03:29:42;;;;;;;6.07;3.93;;;8.50;92.40;;;;;;5023421;28;20187;-75
2021/10/22 03:32:08;;;;;;;3.40;3.10;;;8.50;92.50;;;;;;5023866;28;21910;-75
2021/10/22 03:34:34;;;;;;;4.17;3.77;;;8.50;92.30;;;;;;5026639;28;20195;-75
2021/10/22 03:37:00;;;;;;;7.80;4.43;;;8.50;92.10;;;;;;5027338;28;20192;-75
2021/10/22 03:39:26;;;;;;;4.83;4.27;;;8.40;92.50;;;;;;5020847;28;20245;-74
2021/10/22 03:41:52;;;;;;;4.23;3.77;;;8.40;92.50;;;;;;5025005;28;20216;-75
2021/10/22 03:44:18;;;;;;;4.63;4.20;;;8.40;92.40;;;;;;5026928;28;20188;-75
2021/10/22 03:46:44;;;;;;;4.90;3.70;;;8.40;92.20;;;;;;5027399;28;20242;-75
2021/10/22 03:49:10;;;;;;;4.87;3.60;;;8.40;92.00;;;;;;5023127;28;20271;-75
2021/10/22 03:51:35;;;;;;;5.30;3.80;;;8.40;92.30;;;;;;5028163;28;20249;-75
2021/10/22 03:54:01;;;;;;;4.70;3.73;;;8.40;92.30;;;;;;5020426;28;20189;-75
2021/10/22 03:56:27;;;;;;;4.23;3.83;;;8.40;92.20;;;;;;5025722;28;20266;-75
2021/10/22 03:58:52;;;;;;;4.63;4.17;;;8.40;92.20;;;;;;5025272;28;20689;-75
2021/10/22 04:01:18;;;;;;;6.30;3.97;;;8.40;92.30;;;;;;5025181;28;20815;-75
2021/10/22 04:03:44;;;;;;;3.87;3.53;;;8.40;92.20;;;;;;5023928;28;20669;-75
2021/10/22 04:06:10;;;;;;;4.40;3.93;;;8.40;92.10;;;;;;5025047;28;20191;-74
2021/10/22 04:08:37;;;;;;;3.93;3.63;;;8.40;92.20;;;;;;5024657;28;20610;-74
2021/10/22 04:11:03;;;;;;;4.43;3.87;;;8.40;92.30;;;;;;5024423;28;20183;-73
2021/10/22 04:13:29;;;;;;;4.77;4.27;;;8.40;92.10;;;;;;5026246;28;20191;-72
2021/10/22 04:15:55;;;;;;;4.37;3.97;;;8.40;92.30;;;;;;5025472;28;20572;-72
2021/10/22 04:18:21;;;;;;;6.50;4.50;;;8.30;92.60;;;;;;5025369;28;20181;-73
2021/10/22 04:20:47;;;;;;;4.97;4.03;;;8.30;92.90;;;;;;5026593;28;20659;-73
2021/10/22 04:23:13;;;;;;;4.27;3.87;;;8.20;93.50;;;;;;5021942;28;20719;-73
2021/10/22 04:25:40;;;;;;;3.43;3.23;;;8.20;93.10;;;;;;5024881;28;20181;-73
2021/10/22 04:28:07;;;;;;;4.30;3.90;;;8.20;93.10;;;;;;5025940;28;20615;-73
2021/10/22 04:30:33;;;;;;;3.83;3.53;;;8.20;93.10;;;;;;5027189;28;20292;-73
2021/10/22 04:32:59;;;;;;;4.67;4.27;;;8.10;93.20;;;;;;5021324;28;20276;-72
2021/10/22 04:35:25;;;;;;;4.27;3.80;;;8.10;93.50;;;;;;5027123;28;20218;-73
2021/10/22 04:40:33;;;;;;;6.50;4.00;;;8.00;93.30;;;;;;5026707;28;20185;-73
2021/10/22 04:43:07;;;;;;;7.43;4.03;;;8.10;93.20;;;;;;5025078;28;20214;-73
2021/10/22 04:45:35;;;;;;;7.73;3.83;;;8.00;93.30;;;;;;5025231;28;20188;-74
2021/10/22 04:48:01;;;;;;;7.70;4.37;;;8.00;93.30;;;;;;5023580;28;20575;-73
2021/10/22 04:50:28;;;;;;;6.00;4.27;;;8.00;93.20;;;;;;5022417;28;20191;-74
2021/10/22 04:52:55;;;;;;;5.53;4.30;;;8.00;93.20;;;;;;5026085;28;20334;-74
2021/10/22 04:55:28;;;;;;;5.73;3.83;;;8.00;93.20;;;;;;5023282;28;20541;-72
2021/10/22 04:57:54;;;;;;;6.20;4.40;;;8.00;93.10;;;;;;5022013;28;20204;-74
2021/10/22 05:00:21;;;;;;;5.20;4.37;;;8.00;93.30;;;;;;5024854;28;20266;-73
2021/10/22 05:02:48;;;;;;;5.70;4.20;;;8.00;93.40;;;;;;5025196;28;20223;-73
2021/10/22 05:05:15;;;;;;;6.93;4.10;;;8.00;93.40;;;;;;5017838;28;20655;-73
2021/10/22 05:07:42;;;;;;;6.50;4.00;;;8.00;93.20;;;;;;5019645;28;20184;-74
2021/10/22 05:10:09;;;;;;;5.77;5.13;;;8.00;93.30;;;;;;5017152;28;20207;-78
2021/10/22 05:12:35;;;;;;;5.33;4.13;;;8.10;93.20;;;;;;5024300;28;20197;-76
2021/10/22 05:15:02;;;;;;;4.80;4.40;;;8.10;93.30;;;;;;5025183;28;20743;-74
2021/10/22 05:17:28;;;;;;;5.20;4.63;;;8.10;93.20;;;;;;5019773;28;20672;-73
2021/10/22 05:19:55;;;;;;;7.90;5.03;;;8.20;93.30;;;;;;5023201;28;20176;-74
2021/10/22 05:22:21;;;;;;;4.53;4.13;;;8.20;93.30;;;;;;5024574;28;20208;-76
2021/10/22 05:24:47;;;;;;;6.60;4.87;;;8.20;93.20;;;;;;5022009;28;20194;-74
2021/10/22 05:27:13;;;;;;;6.20;5.13;;;8.20;93.20;;;;;;5023529;28;20736;-71
2021/10/22 05:29:39;;;;;;;6.00;5.27;;;8.30;93.20;;;;;;5016805;28;20206;-71
2021/10/22 05:32:06;;;;;;;7.43;4.73;;;8.30;93.30;;;;;;5019494;28;20184;-74
2021/10/22 05:34:32;;;;;;;7.70;4.70;;;8.30;93.20;;;;;;5027838;28;20251;-74
2021/10/22 05:36:58;;;;;;;5.63;4.83;;;8.40;93.10;;;;;;5023546;28;20176;-75
2021/10/22 05:39:24;;;;;;;4.90;4.30;;;8.40;93.10;;;;;;5021331;28;20857;-74
2021/10/22 05:41:51;;;;;;;4.97;4.57;;;8.40;93.20;;;;;;5024951;28;20200;-73
2021/10/22 05:44:18;;;;;;;5.87;4.90;;;8.50;93.00;;;;;;5023302;28;20271;-73
2021/10/22 05:46:45;;;;;;;8.70;5.23;;;8.50;93.00;;;;;;5020127;28;20688;-75
2021/10/22 05:49:11;;;;;;;9.83;5.77;;;8.50;93.10;;;;;;5023361;28;20187;-73
2021/10/22 05:51:37;;;;;;;10.50;6.50;;;8.60;93.30;;;;;;5025863;28;20184;-73
2021/10/22 05:54:03;;;;;;;10.53;6.77;;;8.60;93.80;;;;;;5024089;28;20183;-75
2021/10/22 05:56:29;;;;;;;8.30;7.43;;;8.60;94.00;;;;;;5026730;28;20578;-75
2021/10/22 05:58:55;;;;;;;12.43;8.27;;;8.60;94.00;;;;;;5022899;28;20660;-75
2021/10/22 06:01:22;;;;;;;11.60;7.33;;;8.70;93.70;;;;;;5021160;28;20669;-75
2021/10/22 06:03:48;;;;;;;9.93;7.23;;;8.70;93.70;;;;;;5024921;28;20267;-75
2021/10/22 06:06:14;;;;;;;16.10;8.03;;;8.80;93.50;;;;;;5021455;28;20217;-75
2021/10/22 06:08:40;;;;;;;12.70;9.10;;;8.80;93.50;;;;;;5025508;28;20172;-76
2021/10/22 06:11:11;;;;;;;13.70;8.53;;;8.90;93.50;;;;;;5023332;28;20725;-75
2021/10/22 06:13:37;;;;;;;10.83;8.03;;;8.90;93.50;;;;;;5027590;28;20192;-75
2021/10/22 06:16:04;;;;;;;15.83;8.50;;;9.00;93.30;;;;;;5026941;28;20729;-76
2021/10/22 06:18:30;;;;;;;10.87;8.57;;;9.10;93.20;;;;;;5028941;28;20267;-75
2021/10/22 06:21:01;;;;;;;9.43;7.47;;;9.10;93.10;;;;;;5028473;28;20267;-76
2021/10/22 06:26:11;;;;;;;9.97;7.10;;;9.30;92.80;;;;;;5026881;28;20339;-76
2021/10/22 06:28:38;;;;;;;13.40;7.00;;;9.40;92.70;;;;;;5022875;28;20278;-74
2021/10/22 06:31:03;;;;;;;7.37;6.57;;;9.50;92.60;;;;;;5025556;28;20187;-75
2021/10/22 06:33:29;;;;;;;9.37;6.57;;;9.50;92.40;;;;;;5029318;28;20179;-74
2021/10/22 06:35:55;;;;;;;12.40;7.10;;;9.60;92.20;;;;;;5026078;28;20188;-74
2021/10/22 06:38:21;;;;;;;15.90;6.93;;;9.70;92.10;;;;;;5028794;28;20572;-75
2021/10/22 06:40:47;;;;;;;9.10;6.57;;;9.80;91.90;;;;;;5023824;28;20185;-75
2021/10/22 06:43:17;;;;;;;10.00;6.60;;;9.90;91.80;;;;;;5025426;28;20226;-75
2021/10/22 06:45:42;;;;;;;10.30;6.07;;;10.10;91.40;;;;;;5027740;28;20207;-75
2021/10/22 06:48:08;;;;;;;8.90;6.70;;;10.20;91.40;;;;;;5031187;28;20565;-75
2021/10/22 06:50:34;;;;;;;11.88;7.40;;;10.30;91.20;;;;;;5029317;28;20190;-75
2021/10/22 06:53:00;;;;;;;12.23;7.28;;;10.50;91.10;;;;;;5025631;28;20188;-75
2021/10/22 06:55:26;;;;;;;11.23;7.53;;;10.80;91.20;;;;;;5030748;28;20560;-75
2021/10/22 06:57:51;;;;;;;13.63;7.03;;;11.20;91.10;;;;;;5027259;28;20204;-75
2021/10/22 07:00:17;;;;;;;11.90;5.95;;;11.70;90.10;;;;;;5026647;28;20190;-76
2021/10/22 07:02:47;;;;;;;11.05;6.88;;;12.20;88.30;;;;;;5025052;28;20224;-76
2021/10/22 07:05:24;;;;;;;12.02;7.13;;;12.90;88.60;;;;;;5026270;28;20184;-77
2021/10/22 07:07:51;;;;;;;12.15;7.15;;;13.70;86.60;;;;;;5025994;28;20237;-76
2021/10/22 07:10:16;;;;;;;10.60;7.15;;;14.60;84.70;;;;;;5027502;28;20176;-76
2021/10/22 07:12:43;;;;;;;12.48;7.47;;;15.40;83.30;;;;;;5026910;28;20681;-74
2021/10/22 07:15:09;;;;;;;17.75;8.20;;;16.20;80.30;;;;;;5027450;28;20222;-76
2021/10/22 07:17:35;;;;;;;12.38;7.70;;;17.00;77.30;;;;;;5028317;28;20208;-74
2021/10/22 07:20:01;;;;;;;8.73;7.85;;;17.70;74.70;;;;;;5028342;28;20267;-75
2021/10/22 07:22:34;;;;;;;14.05;8.82;;;18.20;73.00;;;;;;5026533;28;20212;-75
2021/10/22 07:25:00;;;;;;;12.50;8.52;;;18.60;70.80;;;;;;5028291;28;20176;-75
2021/10/22 07:27:26;;;;;;;17.60;8.82;;;19.20;71.40;;;;;;5025422;28;20181;-75
2021/10/22 07:29:52;;;;;;;13.07;8.27;;;19.80;70.60;;;;;;5024220;28;20195;-75
2021/10/22 07:32:18;;;;;;;14.48;7.93;;;20.30;69.10;;;;;;5027082;28;20585;-76
2021/10/22 07:34:44;;;;;;;9.57;8.45;;;20.90;69.20;;;;;;5024457;28;20675;-75
2021/10/22 07:37:09;;;;;;;10.13;9.13;;;21.30;66.70;;;;;;5026813;28;20188;-76
2021/10/22 07:39:36;;;;;;;14.55;8.45;;;21.60;63.50;;;;;;5028116;28;20187;-74
2021/10/22 07:42:02;;;;;;;13.98;8.77;;;21.90;64.80;;;;;;5025102;28;20223;-76
2021/10/22 07:44:29;;;;;;;10.70;8.93;;;22.30;65.30;;;;;;5027448;28;20184;-76
2021/10/22 07:46:57;;;;;;;10.43;8.32;;;22.80;64.30;;;;;;5025639;28;20177;-76
2021/10/22 07:49:23;;;;;;;11.07;8.85;;;23.10;62.40;;;;;;5054706;28;20670;-76
2021/10/22 07:51:49;;;;;;;14.80;9.32;;;23.20;62.30;;;;;;5027051;28;20225;-76
2021/10/22 07:54:15;;;;;;;9.05;7.78;;;23.00;62.50;;;;;;5024079;28;20181;-76
2021/10/22 07:56:44;;;;;;;10.60;7.53;;;22.80;62.50;;;;;;5026153;28;20183;-76
2021/10/22 07:59:13;;;;;;;8.13;7.32;;;22.50;62.50;;;;;;5024649;28;20905;-76
2021/10/22 08:01:39;;;;;;;16.20;7.60;;;21.90;63.10;;;;;;5024981;28;20212;-76
2021/10/22 08:04:08;;;;;;;12.57;7.85;;;21.60;63.80;;;;;;5023715;28;20176;-76
2021/10/22 08:06:36;;;;;;;14.73;8.63;;;21.30;64.40;;;;;;5024748;28;20238;-75
2021/10/22 08:09:02;;;;;;;9.77;8.38;;;21.20;64.70;;;;;;5026129;28;20714;-75
2021/10/22 08:11:28;;;;;;;13.82;7.78;;;20.90;65.00;;;;;;5021446;28;20658;-75
2021/10/22 08:13:54;;;;;;;10.07;8.13;;;20.70;65.60;;;;;;5025273;28;20218;-75
2021/10/22 08:16:20;;;;;;;9.70;8.40;;;20.60;65.30;;;;;;5023176;28;20753;-75
2021/10/22 08:18:47;;;;;;;11.25;9.10;;;20.50;65.50;;;;;;5026144;28;20207;-75
2021/10/22 08:21:33;;;;;;;11.45;8.23;;;20.40;65.70;;;;;;5023633;28;20192;-75
2021/10/22 08:23:59;;;;;;;10.77;8.27;;;20.20;66.10;;;;;;5024523;28;20202;-75
2021/10/22 08:26:25;;;;;;;10.82;8.77;;;20.10;66.30;;;;;;5024688;28;20176;-75
2021/10/22 08:28:51;;;;;;;8.90;8.00;;;20.10;66.10;;;;;;5026471;28;20273;-75
2021/10/22 08:31:16;;;;;;;10.82;8.38;;;20.10;66.20;;;;;;5023450;28;20246;-75
2021/10/22 08:33:43;;;;;;;12.00;8.32;;;20.00;66.50;;;;;;5025417;28;20192;-75
2021/10/22 08:36:12;;;;;;;14.07;8.82;;;19.80;66.80;;;;;;5027636;28;20594;-75
2021/10/22 08:38:39;;;;;;;13.18;7.88;;;19.70;67.20;;;;;;5024667;28;20184;-75
2021/10/22 08:41:08;;;;;;;12.65;9.52;;;19.60;67.10;;;;;;5026496;28;20176;-75
2021/10/22 08:43:35;;;;;;;13.68;9.23;;;19.50;67.30;;;;;;5023582;28;20211;-76
2021/10/22 08:46:02;;;;;;;11.40;9.07;;;19.40;67.30;;;;;;5024901;28;20197;-76
2021/10/22 08:48:29;;;;;;;12.82;9.02;;;19.40;67.70;;;;;;5025368;28;20572;-76
2021/10/22 08:50:56;;;;;;;13.52;9.70;;;19.40;68.10;;;;;;5025092;28;20690;-75
2021/10/22 08:53:23;;;;;;;15.18;9.57;;;19.50;67.70;;;;;;5028337;28;20183;-75
2021/10/22 08:55:49;;;;;;;15.10;9.52;;;19.60;67.60;;;;;;5022740;28;20617;-74
2021/10/22 08:58:18;;;;;;;15.52;10.48;;;19.70;68.00;;;;;;5027056;28;20570;-73
2021/10/22 09:00:44;;;;;;;14.93;10.52;;;19.80;67.60;;;;;;5022657;28;20180;-74
2021/10/22 09:03:13;;;;;;;19.23;12.43;;;20.00;67.30;;;;;;5023613;28;20215;-73
2021/10/22 09:06:01;;;;;;;24.38;12.48;;;20.10;66.70;;;;;;5024180;28;20184;-74
2021/10/22 09:08:35;;;;;;;16.77;12.18;;;20.20;66.20;;;;;;5025212;28;20180;-74
2021/10/22 09:11:03;;;;;;;19.33;12.80;;;20.30;66.40;;;;;;5024949;28;20223;-74
2021/10/22 09:13:31;;;;;;;19.05;12.57;;;20.50;66.20;;;;;;5024198;28;20268;-74
2021/10/22 09:16:17;;;;;;;19.58;13.02;;;20.70;65.90;;;;;;5025825;28;20216;-76
2021/10/22 09:18:44;;;;;;;16.60;11.98;;;20.90;65.90;;;;;;5021688;28;20714;-75
2021/10/22 09:21:09;;;;;;;19.85;11.80;;;21.30;66.00;;;;;;5023765;28;20176;-74
2021/10/22 09:23:38;;;;;;;20.67;11.20;;;21.70;65.00;;;;;;5026988;28;20596;-75
2021/10/22 09:26:30;;;;;;;14.38;10.90;;;22.00;62.80;;;;;;5025561;28;20176;-74
2021/10/22 09:28:56;;;;;;;14.50;10.70;;;22.10;62.90;;;;;;5021284;28;20241;-74
2021/10/22 09:31:23;;;;;;;14.85;10.85;;;22.00;62.80;;;;;;5019639;28;20181;-75
2021/10/22 09:34:01;;;;;;;14.57;10.27;;;22.10;63.10;;;;;;5019182;28;20275;-76
2021/10/22 09:36:32;;;;;;;15.10;10.45;;;22.20;63.00;;;;;;5023329;28;20217;-75
2021/10/22 09:39:19;;;;;;;12.65;9.68;;;22.20;62.60;;;;;;5021412;28;20598;-75
2021/10/22 09:41:52;;;;;;;14.52;10.02;;;22.30;63.10;;;;;;5021032;28;20303;-73
2021/10/22 09:44:21;;;;;;;12.38;10.10;;;22.20;62.90;;;;;;5021726;28;20214;-74
2021/10/22 09:46:52;;;;;;;16.50;11.57;;;22.00;63.30;;;;;;5023509;28;20256;-75
2021/10/22 09:49:26;;;;;;;15.70;11.32;;;21.90;63.10;;;;;;5024023;28;20204;-74
2021/10/22 09:51:54;;;;;;;16.35;11.07;;;21.90;62.80;;;;;;5023185;28;20776;-77
2021/10/22 09:54:26;;;;;;;14.15;10.75;;;22.10;63.30;;;;;;5021122;28;20603;-75
2021/10/22 09:56:53;;;;;;;15.90;9.98;;;22.50;63.30;;;;;;5022149;28;20184;-76
2021/10/22 09:59:24;;;;;;;18.75;10.88;;;23.30;63.40;;;;;;5023675;28;20190;-75
2021/10/22 10:01:58;;;;;;;16.33;11.35;;;24.20;62.60;;;;;;5022271;28;20204;-74
2021/10/22 10:04:28;;;;;;;20.05;10.98;;;25.00;60.20;;;;;;5020774;28;20184;-74
2021/10/22 10:06:54;;;;;;;21.00;11.02;;;25.60;59.80;;;;;;5023530;28;20182;-75
2021/10/22 10:09:21;;;;;;;14.05;10.18;;;26.30;58.90;;;;;;5023888;28;20176;-75
2021/10/22 10:11:49;;;;;;;16.42;12.32;;;27.10;58.00;;;;;;5020772;28;20184;-76
2021/10/22 10:14:16;;;;;;;19.55;11.10;;;27.90;57.40;;;;;;5025535;28;20230;-76
2021/10/22 10:16:46;;;;;;;19.33;11.77;;;28.70;56.30;;;;;;5023772;28;20194;-76
2021/10/22 10:19:20;;;;;;;20.17;11.38;;;29.30;55.60;;;;;;5021362;28;20184;-75
2021/10/22 10:21:48;;;;;;;22.30;11.18;;;29.70;54.40;;;;;;5022335;28;20223;-75
2021/10/22 10:24:18;;;;;;;15.40;11.77;;;30.10;54.80;;;;;;5025658;28;20274;-76
2021/10/22 10:26:44;;;;;;;17.02;11.50;;;30.30;52.00;;;;;;5021908;28;20188;-75
2021/10/22 10:29:27;;;;;;;13.48;11.10;;;30.40;52.80;;;;;;5023196;28;20813;-76
2021/10/22 10:32:05;;;;;;;17.85;10.60;;;30.40;53.40;;;;;;5021983;28;20934;-76
2021/10/22 10:34:35;;;;;;;18.60;11.40;;;30.40;52.30;;;;;;5026275;28;20556;-77
2021/10/22 10:37:05;;;;;;;12.40;10.60;;;30.20;53.70;;;;;;5019453;28;20195;-77
2021/10/22 10:39:46;;;;;;;17.65;11.90;;;29.90;52.50;;;;;;5023770;28;20577;-76
2021/10/22 10:42:33;;;;;;;16.70;10.90;;;29.40;52.80;;;;;;5022750;28;20266;-76
2021/10/22 10:45:14;;;;;;;14.13;11.23;;;28.80;54.30;;;;;;5023564;28;20266;-76
2021/10/22 10:47:42;;;;;;;16.83;11.00;;;28.50;55.00;;;;;;5020422;28;20188;-76
2021/10/22 10:50:09;;;;;;;15.75;11.65;;;28.50;55.60;;;;;;5021563;28;20887;-75
2021/10/22 10:52:38;;;;;;;18.00;11.70;;;28.60;55.10;;;;;;5022104;28;20193;-76
2021/10/22 10:55:27;;;;;;;21.08;11.63;;;28.90;55.30;;;;;;5019928;28;20283;-75
2021/10/22 10:58:06;;;;;;;16.00;11.60;;;29.00;53.60;;;;;;5026610;28;20188;-76
2021/10/22 11:00:48;;;;;;;11.73;10.50;;;29.20;55.00;;;;;;5023679;28;20203;-77
2021/10/22 11:03:16;;;;;;;13.05;10.25;;;29.60;55.10;;;;;;5021983;28;20251;-76
2021/10/22 11:05:56;;;;;;;12.50;10.02;;;30.10;54.20;;;;;;5022921;28;20199;-77
2021/10/22 11:08:31;;;;;;;11.68;8.90;;;30.80;52.60;;;;;;5023653;28;20219;-76
2021/10/22 11:11:18;;;;;;;13.20;9.60;;;31.10;52.10;;;;;;5026311;28;20196;-77
2021/10/22 11:13:44;;;;;;;9.70;8.50;;;31.10;50.00;;;;;;5024925;28;20191;-74
2021/10/22 11:16:39;;;;;;;9.82;8.82;;;31.00;50.90;;;;;;5023377;28;20176;-76
2021/10/22 11:19:11;;;;;;;9.90;8.88;;;30.80;52.50;;;;;;5027569;28;20180;-75
2021/10/22 11:21:45;;;;;;;13.00;9.50;;;30.60;52.60;;;;;;5026711;28;20862;-75
2021/10/22 11:24:20;;;;;;;10.43;9.38;;;30.50;53.40;;;;;;5028514;28;20188;-76
2021/10/22 11:26:54;;;;;;;9.85;8.82;;;30.40;53.50;;;;;;5027160;28;20253;-76
2021/10/22 11:29:22;;;;;;;13.07;8.10;;;30.10;51.90;;;;;;5027154;28;20187;-76
2021/10/22 11:31:50;;;;;;;9.70;8.52;;;29.80;53.60;;;;;;5028011;28;20184;-75
2021/10/22 11:34:23;;;;;;;16.77;8.30;;;29.50;53.30;;;;;;5027243;28;20191;-76
2021/10/22 11:37:12;;;;;;;8.60;7.70;;;29.20;54.40;;;;;;5026471;28;20188;-74
2021/10/22 11:39:50;;;;;;;8.93;8.02;;;29.10;53.60;;;;;;5027151;28;20204;-77
2021/10/22 11:42:36;;;;;;;6.55;6.05;;;29.00;53.40;;;;;;5024408;28;20207;-76
2021/10/22 11:45:05;;;;;;;6.53;6.03;;;28.80;53.20;;;;;;5025427;28;20188;-76
2021/10/22 11:47:48;;;;;;;6.93;6.22;;;28.50;55.10;;;;;;5026396;28;20177;-75
2021/10/22 11:50:18;;;;;;;6.40;5.72;;;28.30;54.40;;;;;;5028310;28;20210;-76
2021/10/22 11:53:33;;;;;;;8.88;5.80;;;28.40;56.10;;;;;;5025801;28;20189;-79
2021/10/22 11:56:03;;;;;;;4.72;4.32;;;28.60;54.20;;;;;;5026091;28;20219;-77
2021/10/22 11:58:33;;;;;;;6.18;4.05;;;28.90;55.20;;;;;;5027322;28;20261;-77
2021/10/22 12:01:00;;;;;;;7.80;3.92;;;29.40;55.30;;;;;;5028318;28;20642;-77
2021/10/22 12:03:38;;;;;;;4.03;3.80;;;29.90;53.30;;;;;;5031543;28;20266;-76
2021/10/22 12:06:19;;;;;;;3.58;3.47;;;30.30;52.90;;;;;;5028223;28;20215;-76
2021/10/22 12:08:45;;;;;;;3.85;3.65;;;30.70;53.20;;;;;;5025226;28;20180;-76
2021/10/22 12:11:12;;;;;;;3.92;3.70;;;30.90;51.60;;;;;;5024642;28;20291;-75
2021/10/22 12:13:41;;;;;;;5.18;3.85;;;30.70;51.60;;;;;;5022910;28;20188;-76
2021/10/22 12:16:21;;;;;;;3.40;3.25;;;30.50;51.90;;;;;;5024597;28;20237;-76
2021/10/22 12:18:55;;;;;;;4.07;3.75;;;30.20;51.70;;;;;;5026944;28;20194;-76
2021/10/22 12:21:25;;;;;;;3.97;3.55;;;29.70;53.50;;;;;;5026885;28;20188;-77
2021/10/22 12:24:02;;;;;;;4.22;3.70;;;29.50;53.00;;;;;;5026967;28;20255;-77
2021/10/22 12:26:31;;;;;;;3.60;3.50;;;29.40;53.40;;;;;;5023522;28;20670;-76
2021/10/22 12:29:15;;;;;;;3.53;3.42;;;29.40;52.90;;;;;;5023224;28;20188;-75
2021/10/22 12:31:48;;;;;;;3.60;3.40;;;29.40;52.00;;;;;;5026648;28;20184;-75
2021/10/22 12:34:25;;;;;;;3.58;3.38;;;29.40;53.70;;;;;;5029008;28;20612;-74
2021/10/22 12:37:13;;;;;;;3.58;3.28;;;29.50;53.70;;;;;;5027375;28;20258;-76
2021/10/22 12:39:48;;;;;;;3.05;2.80;;;29.70;50.70;;;;;;5023069;28;20696;-75
2021/10/22 12:42:23;;;;;;;2.92;2.83;;;29.80;51.80;;;;;;5023204;28;20209;-75
2021/10/22 12:44:49;;;;;;;2.58;2.58;;;29.80;51.50;;;;;;5021698;28;20188;-75
2021/10/22 12:47:15;;;;;;;2.63;2.42;;;30.00;51.80;;;;;;5021072;28;20177;-75
2021/10/22 12:49:41;;;;;;;3.25;2.90;;;30.10;52.10;;;;;;5024212;28;20513;-76
2021/10/22 12:52:06;;;;;;;3.80;3.13;;;30.10;50.60;;;;;;5021882;28;20188;-76
2021/10/22 12:54:46;;;;;;;6.13;3.50;;;29.80;52.20;;;;;;5023065;28;20692;-76
2021/10/22 12:57:21;;;;;;;3.25;2.95;;;29.50;51.90;;;;;;5026763;28;20270;-72